Time;durP1;ratioP1;P1;durP2;ratioP2;P2;SDS_P1;SDS_P2;PMS_P1;PMS_P2;Temp;Humidity;BMP_temperature;BMP_pressure;BME280_temperature;BME280_humidity;BME280_pressure;Samples;Min_cycle;Max_cycle;Signal;HPM_P1;HPM_P2
2021/04/07 00:01:51;;;;;;;4.80;3.65;;;2.70;99.90;;;;;;4383131;32;20073;-60
2021/04/07 00:04:18;;;;;;;5.20;3.50;;;2.70;99.90;;;;;;4354765;32;20080;-65
2021/04/07 00:06:44;;;;;;;4.22;3.15;;;2.70;99.90;;;;;;4375553;32;20093;-60
2021/04/07 00:09:11;;;;;;;5.00;3.28;;;2.70;99.90;;;;;;4374728;32;20066;-60
2021/04/07 00:11:37;;;;;;;4.18;3.30;;;2.70;99.90;;;;;;4380853;32;20520;-59
2021/04/07 00:14:10;;;;;;;5.00;3.50;;;2.70;99.90;;;;;;4386255;32;20186;-60
2021/04/07 00:16:37;;;;;;;4.25;3.20;;;2.80;99.90;;;;;;4373678;32;20082;-59
2021/04/07 00:19:09;;;;;;;4.47;3.30;;;2.70;99.90;;;;;;4375030;32;20453;-59
2021/04/07 00:21:35;;;;;;;5.32;3.10;;;2.80;99.90;;;;;;4367513;32;20476;-61
2021/04/07 00:24:02;;;;;;;4.93;3.70;;;2.80;99.90;;;;;;4378176;32;20148;-60
2021/04/07 00:26:28;;;;;;;5.18;3.45;;;2.80;99.90;;;;;;4359306;32;20062;-60
2021/04/07 00:28:55;;;;;;;5.07;3.50;;;2.80;99.90;;;;;;4366290;32;20070;-59
2021/04/07 00:31:21;;;;;;;4.40;3.78;;;2.80;99.90;;;;;;4381118;32;20098;-60
2021/04/07 00:33:47;;;;;;;5.85;4.68;;;2.80;99.90;;;;;;4392666;32;20524;-59
2021/04/07 00:36:13;;;;;;;4.87;4.37;;;2.80;99.90;;;;;;4356201;32;20512;-60
2021/04/07 00:38:39;;;;;;;5.85;4.75;;;2.80;99.90;;;;;;4389330;32;20093;-60
2021/04/07 00:41:06;;;;;;;4.85;4.25;;;2.80;99.90;;;;;;4375703;32;20093;-61
2021/04/07 00:43:32;;;;;;;4.78;4.30;;;2.70;99.90;;;;;;4359902;32;20063;-61
2021/04/07 00:45:58;;;;;;;6.60;4.32;;;2.70;99.90;;;;;;4377241;32;20069;-60
2021/04/07 00:48:24;;;;;;;4.82;4.00;;;2.80;99.90;;;;;;4386542;32;20078;-60
2021/04/07 00:50:50;;;;;;;5.57;3.78;;;2.70;99.90;;;;;;4370741;32;20652;-59
2021/04/07 00:53:17;;;;;;;4.90;3.45;;;2.70;99.90;;;;;;4381015;32;20062;-59
2021/04/07 00:55:45;;;;;;;4.55;3.58;;;2.70;99.90;;;;;;4376155;32;20515;-59
2021/04/07 00:58:11;;;;;;;4.55;3.22;;;2.80;99.90;;;;;;4353846;32;20089;-60
2021/04/07 01:00:39;;;;;;;4.80;3.60;;;2.80;99.90;;;;;;4354698;32;20088;-59
2021/04/07 01:03:05;;;;;;;4.70;3.20;;;2.80;99.90;;;;;;4351183;32;20084;-60
2021/04/07 01:05:32;;;;;;;4.87;3.67;;;2.80;99.90;;;;;;4362060;32;20089;-62
2021/04/07 01:07:58;;;;;;;5.62;3.10;;;2.70;99.90;;;;;;4353030;32;20449;-60
2021/04/07 01:10:25;;;;;;;4.43;3.30;;;2.80;99.90;;;;;;4349297;32;20071;-59
2021/04/07 01:12:52;;;;;;;4.87;3.70;;;2.70;99.90;;;;;;4357698;32;20090;-59
2021/04/07 01:15:18;;;;;;;5.25;3.30;;;2.70;99.90;;;;;;4378097;32;20169;-60
2021/04/07 01:17:45;;;;;;;3.95;3.05;;;2.70;99.90;;;;;;4353525;32;20079;-60
2021/04/07 01:20:14;;;;;;;4.53;3.20;;;2.60;99.90;;;;;;4351216;32;20492;-61
2021/04/07 01:22:41;;;;;;;3.50;2.95;;;2.60;99.90;;;;;;4370746;32;20176;-60
2021/04/07 01:25:09;;;;;;;3.70;2.83;;;2.60;99.90;;;;;;4357100;32;20147;-60
2021/04/07 01:27:37;;;;;;;3.80;2.80;;;2.50;99.90;;;;;;4384665;32;20090;-61
2021/04/07 01:30:09;;;;;;;3.25;2.50;;;2.60;99.90;;;;;;4365136;32;20117;-61
2021/04/07 01:32:37;;;;;;;4.47;2.80;;;2.50;99.90;;;;;;4348376;32;20157;-63
2021/04/07 01:35:05;;;;;;;4.50;3.10;;;2.50;99.90;;;;;;4362251;32;20576;-61
2021/04/07 01:37:36;;;;;;;4.30;2.90;;;2.50;99.90;;;;;;4356407;32;20090;-59
2021/04/07 01:40:12;;;;;;;3.70;2.85;;;2.40;99.90;;;;;;4375819;32;20106;-60
2021/04/07 01:42:40;;;;;;;2.85;2.47;;;2.50;99.90;;;;;;4362911;32;20074;-59
2021/04/07 01:45:07;;;;;;;4.15;3.00;;;2.50;99.90;;;;;;4347340;32;20068;-62
2021/04/07 01:47:34;;;;;;;4.72;2.60;;;2.40;99.90;;;;;;4354089;32;20130;-60
2021/04/07 01:50:01;;;;;;;3.67;2.33;;;2.40;99.90;;;;;;4376595;32;20152;-59
2021/04/07 01:52:28;;;;;;;4.97;2.90;;;2.40;99.90;;;;;;4360523;32;20443;-60
2021/04/07 01:54:55;;;;;;;2.87;2.47;;;2.40;99.90;;;;;;4358784;32;20166;-60
2021/04/07 01:57:22;;;;;;;2.83;2.60;;;2.30;99.90;;;;;;4367904;32;20611;-60
2021/04/07 01:59:48;;;;;;;4.60;2.53;;;2.50;99.90;;;;;;4340624;32;20072;-62
2021/04/07 02:02:15;;;;;;;4.15;2.70;;;2.50;99.90;;;;;;4350123;32;20493;-59
2021/04/07 02:04:41;;;;;;;2.83;2.22;;;2.40;99.90;;;;;;4362302;32;20079;-59
2021/04/07 02:07:13;;;;;;;3.03;2.50;;;2.50;99.90;;;;;;4371251;32;20524;-59
2021/04/07 02:09:40;;;;;;;3.62;2.60;;;2.40;99.90;;;;;;4353367;32;20157;-60
2021/04/07 02:12:06;;;;;;;3.75;2.70;;;2.40;99.90;;;;;;4362437;32;20057;-60
2021/04/07 02:14:33;;;;;;;4.47;3.15;;;2.30;99.90;;;;;;4379119;32;20166;-61
2021/04/07 02:17:01;;;;;;;3.75;2.87;;;2.30;99.90;;;;;;4345745;32;20070;-60
2021/04/07 02:19:29;;;;;;;4.12;3.17;;;2.40;99.90;;;;;;4342630;32;20195;-59
2021/04/07 02:22:04;;;;;;;3.67;2.87;;;2.40;99.90;;;;;;4376193;32;20463;-60
2021/04/07 02:24:30;;;;;;;4.12;3.15;;;2.40;99.90;;;;;;4372316;32;20074;-59
2021/04/07 02:26:57;;;;;;;4.18;3.03;;;2.50;99.90;;;;;;4349527;32;20141;-61
2021/04/07 02:29:23;;;;;;;4.57;3.30;;;2.50;99.90;;;;;;4347906;32;20065;-59
2021/04/07 02:31:49;;;;;;;4.82;3.40;;;2.40;99.90;;;;;;4354640;32;20082;-60
2021/04/07 02:34:15;;;;;;;5.87;4.05;;;2.50;99.90;;;;;;4361261;32;20067;-60
2021/04/07 02:36:42;;;;;;;6.37;3.97;;;2.40;99.90;;;;;;4368764;32;20077;-59
2021/04/07 02:39:08;;;;;;;6.18;3.47;;;2.40;99.90;;;;;;4380659;32;20073;-60
2021/04/07 02:41:34;;;;;;;6.18;3.85;;;2.40;99.90;;;;;;4358642;32;20158;-61
2021/04/07 02:44:01;;;;;;;6.78;3.58;;;2.60;99.90;;;;;;4383175;32;20500;-59
2021/04/07 02:46:27;;;;;;;4.65;3.33;;;2.60;99.90;;;;;;4379191;32;20158;-60
2021/04/07 02:48:53;;;;;;;5.20;3.22;;;2.70;99.90;;;;;;4345005;32;20070;-60
2021/04/07 02:51:19;;;;;;;5.07;3.22;;;2.60;99.90;;;;;;4372317;32;20050;-60
2021/04/07 02:53:46;;;;;;;3.90;2.70;;;2.40;99.90;;;;;;4377023;32;20059;-59
2021/04/07 02:56:12;;;;;;;4.78;3.30;;;2.40;99.90;;;;;;4361406;32;20097;-60
2021/04/07 02:58:38;;;;;;;4.68;3.08;;;2.50;99.90;;;;;;4354937;32;20451;-58
2021/04/07 03:01:04;;;;;;;3.87;2.85;;;2.40;99.90;;;;;;4368845;32;20083;-60
2021/04/07 03:03:30;;;;;;;4.65;2.97;;;2.60;99.90;;;;;;4364481;32;20066;-58
2021/04/07 03:05:57;;;;;;;4.10;3.03;;;2.50;99.90;;;;;;4363206;32;20078;-59
2021/04/07 03:08:23;;;;;;;3.95;2.87;;;2.50;99.90;;;;;;4387624;32;20105;-59
2021/04/07 03:10:49;;;;;;;4.22;3.03;;;2.50;99.90;;;;;;4361761;32;20097;-60
2021/04/07 03:13:15;;;;;;;4.10;3.00;;;2.70;99.90;;;;;;4369007;32;20085;-59
2021/04/07 03:15:41;;;;;;;3.75;2.92;;;2.70;99.90;;;;;;4386649;32;20057;-60
2021/04/07 03:18:08;;;;;;;4.50;3.20;;;2.70;99.90;;;;;;4374535;32;20078;-59
2021/04/07 03:20:34;;;;;;;4.18;3.10;;;2.60;99.90;;;;;;4352798;32;20712;-61
2021/04/07 03:23:00;;;;;;;6.62;3.42;;;2.60;99.90;;;;;;4382789;32;20097;-59
2021/04/07 03:25:26;;;;;;;5.40;3.70;;;2.60;99.90;;;;;;4365759;32;20065;-59
2021/04/07 03:27:52;;;;;;;7.62;4.55;;;2.70;99.90;;;;;;4366244;32;20452;-59
2021/04/07 03:30:19;;;;;;;8.57;5.05;;;2.70;99.90;;;;;;4360908;32;20104;-59
2021/04/07 03:32:45;;;;;;;6.28;4.47;;;2.60;99.90;;;;;;4355968;32;20137;-60
2021/04/07 03:35:12;;;;;;;6.47;3.97;;;2.70;99.90;;;;;;4367783;32;20081;-60
2021/04/07 03:37:38;;;;;;;7.62;3.90;;;2.70;99.90;;;;;;4386764;32;20076;-60
2021/04/07 03:40:05;;;;;;;5.97;4.00;;;2.70;99.90;;;;;;4355078;32;20097;-61
2021/04/07 03:42:31;;;;;;;4.80;3.30;;;2.80;99.90;;;;;;4354569;32;20156;-60
2021/04/07 03:44:57;;;;;;;5.07;3.55;;;2.80;99.90;;;;;;4357435;32;20081;-59
2021/04/07 03:47:24;;;;;;;5.70;3.70;;;2.90;99.90;;;;;;4380084;32;20109;-60
2021/04/07 03:49:50;;;;;;;4.53;3.30;;;3.00;99.90;;;;;;4381734;32;20484;-60
2021/04/07 03:52:16;;;;;;;5.32;3.50;;;3.10;99.90;;;;;;4388138;32;20084;-61
2021/04/07 03:54:44;;;;;;;4.87;3.25;;;3.00;99.90;;;;;;4382926;32;20070;-65
2021/04/07 03:57:10;;;;;;;5.32;3.42;;;2.90;99.90;;;;;;4384085;32;20062;-61
2021/04/07 03:59:36;;;;;;;3.45;2.75;;;3.00;99.90;;;;;;4375747;32;20078;-61
2021/04/07 04:02:03;;;;;;;4.60;3.05;;;3.00;99.90;;;;;;4352510;32;20082;-60
2021/04/07 04:04:29;;;;;;;3.87;2.85;;;3.10;99.90;;;;;;4369311;32;20074;-59
2021/04/07 04:06:55;;;;;;;3.35;2.75;;;3.40;99.90;;;;;;4384036;32;20069;-59
2021/04/07 04:09:21;;;;;;;3.78;3.03;;;3.50;99.90;;;;;;4388001;32;20069;-60
2021/04/07 04:11:47;;;;;;;4.68;3.10;;;3.30;99.90;;;;;;4366815;32;20425;-61
2021/04/07 04:14:14;;;;;;;4.68;3.03;;;3.30;99.90;;;;;;4385341;32;20078;-59
2021/04/07 04:16:42;;;;;;;5.35;3.58;;;3.40;99.90;;;;;;4370566;32;20076;-60
2021/04/07 04:19:08;;;;;;;5.78;3.50;;;3.50;99.90;;;;;;4385738;32;20070;-59
2021/04/07 04:21:34;;;;;;;4.65;3.47;;;3.40;99.90;;;;;;4375971;32;20517;-61
2021/04/07 04:24:00;;;;;;;4.50;3.45;;;3.60;99.90;;;;;;4375980;32;20080;-60
2021/04/07 04:26:26;;;;;;;5.10;3.47;;;3.60;99.90;;;;;;4378103;32;20460;-60
2021/04/07 04:28:53;;;;;;;7.37;3.87;;;3.40;99.90;;;;;;4351291;32;20134;-60
2021/04/07 04:31:19;;;;;;;5.82;3.58;;;3.70;99.90;;;;;;4351842;32;20073;-59
2021/04/07 04:33:45;;;;;;;9.07;3.85;;;3.50;99.90;;;;;;4390155;32;20079;-61
2021/04/07 04:36:12;;;;;;;6.00;3.25;;;3.50;99.90;;;;;;4366377;32;20162;-59
2021/04/07 04:38:38;;;;;;;6.53;3.97;;;3.50;99.90;;;;;;4360049;32;20494;-59
2021/04/07 04:41:04;;;;;;;5.22;3.60;;;3.50;99.90;;;;;;4372258;32;20058;-59
2021/04/07 04:43:30;;;;;;;4.90;3.65;;;3.50;99.90;;;;;;4380016;32;20166;-60
2021/04/07 04:45:56;;;;;;;5.37;3.28;;;3.60;99.90;;;;;;4377773;32;20136;-59
2021/04/07 04:48:22;;;;;;;3.95;3.22;;;3.60;99.90;;;;;;4386775;32;20063;-60
2021/04/07 04:50:49;;;;;;;4.95;3.33;;;3.40;99.90;;;;;;4358736;32;20094;-60
2021/04/07 04:53:15;;;;;;;5.32;3.20;;;3.60;99.90;;;;;;4375881;32;20058;-59
2021/04/07 04:55:41;;;;;;;5.45;3.67;;;3.50;99.90;;;;;;4360505;32;20480;-60
2021/04/07 04:58:07;;;;;;;6.43;4.68;;;3.60;99.90;;;;;;4387395;32;20512;-59
2021/04/07 05:00:34;;;;;;;6.57;3.45;;;3.60;99.90;;;;;;4360701;32;20069;-61
2021/04/07 05:03:00;;;;;;;6.15;3.10;;;3.70;99.90;;;;;;4382261;32;20070;-61
2021/04/07 05:05:26;;;;;;;4.45;3.10;;;3.70;99.90;;;;;;4386861;32;20112;-58
2021/04/07 05:07:52;;;;;;;4.60;3.05;;;3.60;99.90;;;;;;4353600;32;20073;-60
2021/04/07 05:10:18;;;;;;;4.07;2.87;;;3.70;99.90;;;;;;4375047;32;20497;-60
2021/04/07 05:12:45;;;;;;;3.25;2.72;;;3.90;99.90;;;;;;4344801;32;20085;-60
2021/04/07 05:15:12;;;;;;;3.67;2.95;;;4.40;99.90;;;;;;4365520;32;20072;-59
2021/04/07 05:17:39;;;;;;;4.55;3.17;;;4.30;99.90;;;;;;4353851;32;20088;-59
2021/04/07 05:20:07;;;;;;;5.35;3.62;;;4.30;99.90;;;;;;4377955;32;20077;-61
2021/04/07 05:22:34;;;;;;;5.12;3.75;;;4.30;99.90;;;;;;4372930;32;20077;-60
2021/04/07 05:25:00;;;;;;;3.40;2.80;;;4.10;99.90;;;;;;4350482;32;20163;-59
2021/04/07 05:27:26;;;;;;;6.05;3.17;;;4.10;99.90;;;;;;4351048;32;20070;-59
2021/04/07 05:29:53;;;;;;;5.37;3.33;;;4.10;99.90;;;;;;4388037;32;20088;-60
2021/04/07 05:32:19;;;;;;;6.32;3.70;;;4.30;99.90;;;;;;4374271;32;20085;-59
2021/04/07 05:34:46;;;;;;;4.95;3.33;;;4.40;99.90;;;;;;4338439;32;20073;-59
2021/04/07 05:37:12;;;;;;;3.47;2.70;;;4.40;99.90;;;;;;4384824;32;20072;-59
2021/04/07 05:39:38;;;;;;;6.10;3.40;;;4.50;99.90;;;;;;4365776;32;20062;-60
2021/04/07 05:42:05;;;;;;;6.65;3.62;;;4.50;99.90;;;;;;4374934;32;20523;-60
2021/04/07 05:44:32;;;;;;;5.50;3.72;;;4.60;99.90;;;;;;4346121;32;20066;-59
2021/04/07 05:46:58;;;;;;;5.18;3.15;;;4.60;99.90;;;;;;4382705;32;20085;-59
2021/04/07 05:49:27;;;;;;;3.65;2.92;;;4.80;99.90;;;;;;4367025;32;20451;-58
2021/04/07 05:51:54;;;;;;;3.92;2.85;;;4.80;99.90;;;;;;4349777;32;20163;-59
2021/04/07 05:54:20;;;;;;;5.30;3.42;;;5.00;99.90;;;;;;4375095;32;20070;-60
2021/04/07 05:56:49;;;;;;;4.00;2.92;;;4.80;99.90;;;;;;4362764;32;20166;-60
2021/04/07 05:59:16;;;;;;;4.10;3.40;;;5.10;99.90;;;;;;4355103;32;20085;-60
2021/04/07 06:01:42;;;;;;;5.45;2.95;;;4.80;99.90;;;;;;4351671;32;20104;-60
2021/04/07 06:04:08;;;;;;;4.50;2.65;;;4.90;99.90;;;;;;4384826;32;20050;-61
2021/04/07 06:06:35;;;;;;;6.32;2.62;;;5.10;99.90;;;;;;4373470;32;20081;-60
2021/04/07 06:09:01;;;;;;;3.50;2.83;;;5.50;99.90;;;;;;4364068;32;20093;-59
2021/04/07 06:11:27;;;;;;;5.25;2.85;;;5.20;99.90;;;;;;4382025;32;20495;-60
2021/04/07 06:13:54;;;;;;;7.37;3.65;;;5.50;99.90;;;;;;4381440;32;20080;-59
2021/04/07 06:16:20;;;;;;;6.25;3.95;;;5.40;99.90;;;;;;4382779;32;20081;-57
2021/04/07 06:18:47;;;;;;;7.70;3.70;;;5.50;99.90;;;;;;4379215;32;20174;-59
2021/04/07 06:21:13;;;;;;;5.20;3.65;;;5.80;99.90;;;;;;4357045;32;20078;-58
2021/04/07 06:23:39;;;;;;;4.78;3.50;;;5.60;99.90;;;;;;4376033;32;20443;-58
2021/04/07 06:26:06;;;;;;;4.62;3.70;;;5.60;99.90;;;;;;4378707;32;20058;-59
2021/04/07 06:28:33;;;;;;;5.87;3.85;;;5.70;99.90;;;;;;4361655;32;20074;-58
2021/04/07 06:30:59;;;;;;;7.40;3.67;;;5.90;99.90;;;;;;4385345;32;20146;-58
2021/04/07 06:33:33;;;;;;;5.40;3.47;;;6.00;99.90;;;;;;4382976;32;20496;-58
2021/04/07 06:36:03;;;;;;;6.12;3.50;;;5.60;99.90;;;;;;4355920;32;20090;-57
2021/04/07 06:38:30;;;;;;;5.32;4.10;;;5.70;99.90;;;;;;4366389;32;20066;-59
2021/04/07 06:41:00;;;;;;;5.53;3.83;;;5.70;99.90;;;;;;4348084;32;20097;-60
2021/04/07 06:43:31;;;;;;;5.62;3.97;;;6.10;99.90;;;;;;4363196;32;20955;-57
2021/04/07 06:45:58;;;;;;;7.93;3.75;;;6.20;99.90;;;;;;4376801;32;20058;-58
2021/04/07 06:48:25;;;;;;;5.20;3.60;;;6.30;99.90;;;;;;4360386;32;20079;-60
2021/04/07 06:50:52;;;;;;;7.85;4.03;;;6.50;99.90;;;;;;4357439;32;20073;-60
2021/04/07 06:53:22;;;;;;;7.00;4.40;;;6.40;99.90;;;;;;4356260;32;20076;-59
2021/04/07 06:55:49;;;;;;;7.82;3.97;;;6.20;99.90;;;;;;4379746;32;20224;-61
2021/04/07 06:58:15;;;;;;;6.75;4.30;;;6.30;99.90;;;;;;4348913;32;20091;-59
2021/04/07 07:00:42;;;;;;;6.35;3.90;;;6.40;99.90;;;;;;4361471;32;20088;-58
2021/04/07 07:03:13;;;;;;;8.65;4.65;;;6.60;99.90;;;;;;4381687;32;20078;-58
2021/04/07 07:05:48;;;;;;;8.68;4.18;;;6.70;99.90;;;;;;4364004;32;20082;-59
2021/04/07 07:08:21;;;;;;;6.97;3.70;;;6.60;99.90;;;;;;4364925;32;20531;-57
2021/04/07 07:10:52;;;;;;;7.70;3.80;;;6.70;99.90;;;;;;4349052;32;20086;-59
2021/04/07 07:13:23;;;;;;;7.90;4.35;;;6.70;99.90;;;;;;4361926;32;20484;-59
2021/04/07 07:15:50;;;;;;;5.75;3.85;;;7.20;99.90;;;;;;4360896;32;20182;-59
2021/04/07 07:18:27;;;;;;;7.47;4.15;;;7.30;99.90;;;;;;4347185;32;20085;-59
2021/04/07 07:20:54;;;;;;;6.62;4.30;;;7.10;99.90;;;;;;4378557;32;20161;-59
2021/04/07 07:23:28;;;;;;;9.98;4.95;;;7.30;99.90;;;;;;4350836;32;20141;-59
2021/04/07 07:26:00;;;;;;;13.77;5.60;;;7.20;99.90;;;;;;4357723;32;20074;-61
2021/04/07 07:28:27;;;;;;;14.57;5.78;;;7.10;99.90;;;;;;4367324;32;20062;-58
2021/04/07 07:30:54;;;;;;;9.43;5.80;;;7.30;99.90;;;;;;4371888;32;20105;-59
2021/04/07 07:33:32;;;;;;;9.75;5.32;;;7.30;99.90;;;;;;4367948;32;20181;-59
2021/04/07 07:36:11;;;;;;;13.62;5.87;;;7.40;99.90;;;;;;4357855;32;20145;-58
2021/04/07 07:38:44;;;;;;;14.27;6.43;;;7.00;99.90;;;;;;4391296;32;20070;-58
2021/04/07 07:41:10;;;;;;;10.38;5.90;;;7.10;99.90;;;;;;4350778;32;20111;-60
2021/04/07 07:43:37;;;;;;;11.57;5.85;;;7.40;99.90;;;;;;4361949;32;20070;-59
2021/04/07 07:46:18;;;;;;;13.50;6.40;;;7.40;99.90;;;;;;4377110;32;20049;-60
2021/04/07 07:48:45;;;;;;;10.88;5.40;;;7.60;99.90;;;;;;4351028;32;20674;-58
2021/04/07 07:51:17;;;;;;;12.57;6.55;;;7.60;99.90;;;;;;4373767;32;20508;-62
2021/04/07 07:53:45;;;;;;;12.90;5.57;;;7.50;99.90;;;;;;4377714;32;20058;-59
2021/04/07 07:56:13;;;;;;;9.13;5.10;;;7.60;99.90;;;;;;4363922;32;20085;-59
2021/04/07 07:58:49;;;;;;;9.48;5.25;;;7.60;99.90;;;;;;4348485;32;20501;-58
2021/04/07 08:01:17;;;;;;;7.45;4.53;;;7.60;99.90;;;;;;4364067;32;20144;-59
2021/04/07 08:03:47;;;;;;;8.02;4.20;;;8.00;99.90;;;;;;4349527;32;20070;-59
2021/04/07 08:06:14;;;;;;;7.55;4.53;;;7.80;99.90;;;;;;4390794;32;20066;-58
2021/04/07 08:08:40;;;;;;;9.02;4.45;;;7.90;99.90;;;;;;4378250;32;20072;-59
2021/04/07 08:11:08;;;;;;;7.32;4.03;;;7.80;99.90;;;;;;4352583;32;20193;-58
2021/04/07 08:13:53;;;;;;;9.55;4.22;;;8.20;99.90;;;;;;4361062;32;20158;-59
2021/04/07 08:16:21;;;;;;;6.28;4.12;;;8.70;99.90;;;;;;4377368;32;20232;-57
2021/04/07 08:18:49;;;;;;;11.12;5.57;;;9.00;99.90;;;;;;4368204;32;20138;-61
2021/04/07 08:21:17;;;;;;;9.00;4.97;;;8.30;99.90;;;;;;4361880;32;20547;-56
2021/04/07 08:23:44;;;;;;;10.27;4.78;;;8.10;99.90;;;;;;4387357;32;20472;-56
2021/04/07 08:26:11;;;;;;;13.65;5.75;;;8.10;99.90;;;;;;4364690;32;20158;-57
2021/04/07 08:28:41;;;;;;;13.52;6.40;;;8.80;99.90;;;;;;4372166;32;20231;-59
2021/04/07 08:31:14;;;;;;;11.82;6.03;;;8.70;99.90;;;;;;4360427;32;20226;-59
2021/04/07 08:33:50;;;;;;;12.37;5.35;;;8.50;99.90;;;;;;4356413;32;20251;-57
2021/04/07 08:36:28;;;;;;;12.05;5.78;;;8.20;99.90;;;;;;4351238;32;20162;-58
2021/04/07 08:39:18;;;;;;;9.65;4.68;;;7.90;99.90;;;;;;4373161;32;20173;-57
2021/04/07 08:41:46;;;;;;;11.10;5.22;;;8.50;99.90;;;;;;4370239;32;20185;-60
2021/04/07 08:44:12;;;;;;;9.98;5.93;;;8.40;99.90;;;;;;4356553;32;20112;-59
2021/04/07 08:46:44;;;;;;;11.88;5.07;;;8.00;99.90;;;;;;4386403;32;20090;-61
2021/04/07 08:49:37;;;;;;;8.70;4.80;;;8.50;99.90;;;;;;4376331;32;20071;-58
2021/04/07 08:52:20;;;;;;;8.25;4.47;;;8.60;99.90;;;;;;4365195;32;20194;-59
2021/04/07 08:54:48;;;;;;;9.40;5.15;;;9.00;99.90;;;;;;4361001;32;20079;-59
2021/04/07 08:57:32;;;;;;;8.68;4.50;;;8.90;99.90;;;;;;4348517;32;20070;-62
2021/04/07 09:00:10;;;;;;;10.00;4.78;;;8.90;99.90;;;;;;4358088;32;20062;-58
2021/04/07 09:02:51;;;;;;;12.45;4.75;;;8.70;99.90;;;;;;4356164;32;20523;-60
2021/04/07 09:05:19;;;;;;;13.52;4.72;;;8.70;99.90;;;;;;4375883;32;20070;-58
2021/04/07 09:07:46;;;;;;;8.77;5.10;;;8.80;99.90;;;;;;4362565;32;20504;-61
2021/04/07 09:10:20;;;;;;;9.45;4.85;;;8.90;99.90;;;;;;4365272;32;20104;-57
2021/04/07 09:12:48;;;;;;;8.88;4.87;;;8.60;99.90;;;;;;4372694;32;20159;-59
2021/04/07 09:15:26;;;;;;;7.95;4.85;;;8.90;99.90;;;;;;4366529;32;20110;-59
2021/04/07 09:17:57;;;;;;;10.07;4.65;;;8.90;99.90;;;;;;4350928;32;20141;-60
2021/04/07 09:20:50;;;;;;;7.90;5.30;;;9.00;99.90;;;;;;4365338;32;20106;-60
2021/04/07 09:23:37;;;;;;;7.28;4.35;;;8.50;99.90;;;;;;4382094;32;20533;-59
2021/04/07 09:26:22;;;;;;;6.87;4.25;;;8.80;99.90;;;;;;4373723;32;20157;-61
2021/04/07 09:28:52;;;;;;;8.75;4.82;;;9.00;99.90;;;;;;4382330;32;20095;-61
2021/04/07 09:31:22;;;;;;;8.10;4.80;;;8.70;99.90;;;;;;4370239;32;20154;-59
2021/04/07 09:33:50;;;;;;;8.55;4.95;;;8.60;99.90;;;;;;4375576;32;20070;-60
2021/04/07 09:36:18;;;;;;;11.25;4.80;;;8.60;99.90;;;;;;4350176;32;20102;-62
2021/04/07 09:38:52;;;;;;;10.63;4.90;;;8.70;99.90;;;;;;4365205;32;20081;-62
2021/04/07 09:41:21;;;;;;;8.38;5.10;;;8.90;99.90;;;;;;4343285;32;20152;-60
2021/04/07 09:43:48;;;;;;;10.43;5.22;;;9.20;99.90;;;;;;4368536;32;20065;-60
2021/04/07 09:46:14;;;;;;;7.22;3.95;;;8.90;99.90;;;;;;4389581;32;20117;-59
2021/04/07 09:48:53;;;;;;;11.30;4.05;;;8.40;99.90;;;;;;4364634;32;20086;-61
2021/04/07 09:51:30;;;;;;;8.57;3.70;;;8.10;99.90;;;;;;4385863;32;20516;-60
2021/04/07 09:54:20;;;;;;;6.68;3.55;;;7.80;99.90;;;;;;4362098;32;20557;-62
2021/04/07 09:57:06;;;;;;;13.07;4.30;;;7.70;99.90;;;;;;4366013;32;20066;-60
2021/04/07 09:59:47;;;;;;;6.57;4.10;;;8.00;99.90;;;;;;4366759;32;20425;-60
2021/04/07 10:02:23;;;;;;;8.13;3.80;;;8.10;99.90;;;;;;4378982;32;20049;-60
2021/04/07 10:04:50;;;;;;;9.02;3.72;;;8.40;99.90;;;;;;4393040;32;20552;-60
2021/04/07 10:07:27;;;;;;;7.35;3.37;;;9.00;99.10;;;;;;4374111;32;20080;-64
2021/04/07 10:10:00;;;;;;;7.15;3.75;;;8.80;98.60;;;;;;4372874;32;20097;-61
2021/04/07 10:12:28;;;;;;;11.52;3.58;;;8.60;98.00;;;;;;4358178;32;20584;-61
2021/04/07 10:15:02;;;;;;;8.45;4.03;;;9.20;99.90;;;;;;4367761;32;20085;-60
2021/04/07 10:17:30;;;;;;;5.87;3.55;;;9.20;98.90;;;;;;4342029;32;20082;-61
2021/04/07 10:20:07;;;;;;;6.75;4.15;;;8.70;99.90;;;;;;4354123;32;20180;-61
2021/04/07 10:22:36;;;;;;;6.18;3.12;;;8.70;99.90;;;;;;4346483;32;20161;-60
2021/04/07 10:25:17;;;;;;;7.72;4.07;;;9.20;98.60;;;;;;4363780;32;20073;-60
2021/04/07 10:27:45;;;;;;;6.28;4.05;;;9.50;96.80;;;;;;4362041;32;20105;-61
2021/04/07 10:30:16;;;;;;;9.15;3.85;;;9.60;96.40;;;;;;4361601;32;20137;-59
2021/04/07 10:32:50;;;;;;;11.63;3.78;;;9.70;86.20;;;;;;4360031;32;20101;-59
2021/04/07 10:35:25;;;;;;;10.18;3.83;;;9.30;86.90;;;;;;4371773;32;20548;-61
2021/04/07 10:38:08;;;;;;;7.10;3.72;;;9.20;88.30;;;;;;4369977;32;20079;-59
2021/04/07 10:40:38;;;;;;;7.15;4.20;;;9.50;88.70;;;;;;4364053;32;20074;-61
2021/04/07 10:43:16;;;;;;;6.93;4.32;;;9.60;91.00;;;;;;4359399;32;20070;-63
2021/04/07 10:46:02;;;;;;;7.65;3.85;;;9.70;89.20;;;;;;4377105;32;20105;-57
2021/04/07 10:48:29;;;;;;;7.62;3.65;;;9.40;89.40;;;;;;4353620;32;20078;-60
2021/04/07 10:50:56;;;;;;;10.13;4.10;;;9.70;88.10;;;;;;4384187;32;20146;-63
2021/04/07 10:53:36;;;;;;;11.15;4.22;;;9.60;90.50;;;;;;4366581;32;20083;-62
2021/04/07 10:56:24;;;;;;;11.98;4.10;;;9.40;88.80;;;;;;4368230;32;20753;-61
2021/04/07 10:58:59;;;;;;;8.20;3.90;;;9.20;90.30;;;;;;4384810;32;20100;-61
2021/04/07 11:01:30;;;;;;;8.82;4.12;;;9.30;89.60;;;;;;4388456;32;20077;-61
2021/04/07 11:03:57;;;;;;;14.80;4.20;;;9.40;89.80;;;;;;4376502;32;20077;-59
2021/04/07 11:06:23;;;;;;;8.07;4.18;;;9.50;90.10;;;;;;4388692;32;20074;-59
2021/04/07 11:08:53;;;;;;;8.30;3.85;;;9.10;90.00;;;;;;4364678;32;20069;-61
2021/04/07 11:11:25;;;;;;;11.15;4.50;;;9.50;91.40;;;;;;4360401;32;20089;-60
2021/04/07 11:13:52;;;;;;;10.52;4.10;;;9.30;88.40;;;;;;4366550;32;20186;-61
2021/04/07 11:16:18;;;;;;;12.10;4.80;;;9.00;92.80;;;;;;4374387;32;20153;-61
2021/04/07 11:18:46;;;;;;;12.02;4.75;;;8.80;93.90;;;;;;4390682;32;20076;-61
2021/04/07 11:21:14;;;;;;;6.60;4.05;;;8.80;93.40;;;;;;4366263;32;20074;-60
2021/04/07 11:23:41;;;;;;;8.52;4.18;;;9.20;93.70;;;;;;4356558;32;20167;-60
2021/04/07 11:26:08;;;;;;;12.50;4.32;;;9.20;96.20;;;;;;4378446;32;20062;-61
2021/04/07 11:28:34;;;;;;;10.43;4.50;;;9.00;94.20;;;;;;4359727;32;20146;-61
2021/04/07 11:33:49;;;;;;;9.10;4.75;;;8.90;95.80;;;;;;4377233;32;20062;-60
2021/04/07 11:38:59;;;;;;;10.38;4.22;;;8.90;97.90;;;;;;4361515;32;20070;-60
2021/04/07 11:46:36;;;;;;;9.85;4.65;;;8.60;99.90;;;;;;4369663;32;20153;-60
2021/04/07 11:49:06;;;;;;;14.85;5.68;;;8.60;99.90;;;;;;4357973;32;20085;-59
2021/04/07 11:51:41;;;;;;;10.43;5.43;;;8.50;98.80;;;;;;4375286;32;20140;-60
2021/04/07 11:54:11;;;;;;;8.13;4.82;;;8.40;99.90;;;;;;4366553;32;20058;-60
2021/04/07 11:56:44;;;;;;;17.30;6.03;;;8.30;99.90;;;;;;4364511;32;20153;-60
2021/04/07 11:59:18;;;;;;;11.18;4.07;;;8.40;99.90;;;;;;4354431;32;20118;-60
2021/04/07 12:01:45;;;;;;;14.38;5.35;;;8.10;98.10;;;;;;4371677;32;20516;-60
2021/04/07 12:04:12;;;;;;;7.47;3.67;;;7.90;98.80;;;;;;4388539;32;20155;-59
2021/04/07 12:06:38;;;;;;;9.77;4.00;;;7.80;98.70;;;;;;4368999;32;20092;-60
2021/04/07 12:09:05;;;;;;;11.12;4.15;;;7.70;97.70;;;;;;4370417;32;20088;-60
2021/04/07 12:11:32;;;;;;;8.90;3.72;;;7.70;99.10;;;;;;4356848;32;20232;-59
2021/04/07 12:13:59;;;;;;;10.50;4.70;;;7.80;99.90;;;;;;4360487;32;20071;-61
2021/04/07 12:16:25;;;;;;;10.00;3.87;;;7.80;98.50;;;;;;4352714;32;20186;-60
2021/04/07 12:18:52;;;;;;;8.43;3.70;;;7.80;99.00;;;;;;4353097;32;20074;-60
2021/04/07 12:21:18;;;;;;;16.33;4.20;;;7.80;99.90;;;;;;4370043;32;20106;-60
2021/04/07 12:23:45;;;;;;;13.85;4.47;;;8.00;99.60;;;;;;4385562;32;20093;-59
2021/04/07 12:26:14;;;;;;;16.58;4.62;;;8.10;99.90;;;;;;4374751;32;20170;-59
2021/04/07 12:28:43;;;;;;;8.98;3.80;;;8.10;98.30;;;;;;4356445;32;20231;-60
2021/04/07 12:31:12;;;;;;;8.40;3.40;;;8.00;99.90;;;;;;4368565;32;20443;-60
2021/04/07 12:33:38;;;;;;;15.13;3.67;;;8.10;95.60;;;;;;4382365;32;20077;-62
2021/04/07 12:36:10;;;;;;;13.38;4.15;;;8.00;97.70;;;;;;4376225;32;20163;-63
2021/04/07 12:38:39;;;;;;;11.10;3.87;;;8.10;98.80;;;;;;4371252;32;20182;-61
2021/04/07 12:41:10;;;;;;;8.75;3.53;;;8.20;98.30;;;;;;4378748;32;20086;-61
2021/04/07 12:43:36;;;;;;;9.00;3.60;;;8.20;97.80;;;;;;4366701;32;20109;-61
2021/04/07 12:46:02;;;;;;;5.72;3.55;;;8.20;96.20;;;;;;4375821;32;20117;-63
2021/04/07 12:48:29;;;;;;;8.70;3.53;;;8.10;95.00;;;;;;4368139;32;20078;-61
2021/04/07 12:50:55;;;;;;;8.50;3.70;;;8.20;95.50;;;;;;4383343;32;20155;-62
2021/04/07 12:53:21;;;;;;;9.23;3.40;;;8.40;95.00;;;;;;4387178;32;20190;-63
2021/04/07 12:55:47;;;;;;;6.40;3.37;;;8.40;94.80;;;;;;4385955;32;20097;-61
2021/04/07 12:58:13;;;;;;;5.60;3.20;;;8.60;94.70;;;;;;4374273;32;20463;-61
2021/04/07 13:00:40;;;;;;;8.40;3.65;;;8.70;92.60;;;;;;4384974;32;20449;-63
2021/04/07 13:03:06;;;;;;;6.22;3.03;;;8.70;94.90;;;;;;4364737;32;20516;-63
2021/04/07 13:05:32;;;;;;;6.65;3.47;;;8.90;93.50;;;;;;4374600;32;20077;-63
2021/04/07 13:07:58;;;;;;;6.03;3.15;;;8.60;91.80;;;;;;4365064;32;20153;-60
2021/04/07 13:10:25;;;;;;;9.95;3.28;;;8.70;93.30;;;;;;4371865;32;20143;-62
2021/04/07 13:12:51;;;;;;;8.02;3.53;;;8.60;92.90;;;;;;4384914;32;20530;-66
2021/04/07 13:15:17;;;;;;;7.12;3.62;;;8.80;92.50;;;;;;4352629;32;20456;-61